TimeMDT,TemperatureF,Dew PointF,Humidity,Sea Level PressureIn,VisibilityMPH,Wind Direction,Wind SpeedMPH,Gust SpeedMPH,PrecipitationIn,Events,Conditions,WindDirDegrees,DateUTC
12:51 AM,73.9,44.1,34,29.94,10.0,South,9.2,-,N/A,,Clear,190,2013-09-04 06:51:00
1:51 AM,72.0,45.0,38,29.95,10.0,SSW,5.8,-,N/A,,Clear,210,2013-09-04 07:51:00
2:51 AM,71.1,46.0,41,29.95,10.0,West,4.6,-,N/A,,Clear,260,2013-09-04 08:51:00
3:51 AM,68.0,46.0,45,29.96,10.0,Calm,Calm,-,N/A,,Clear,0,2013-09-04 09:51:00
4:51 AM,64.0,46.9,54,29.97,10.0,Calm,Calm,-,N/A,,Clear,0,2013-09-04 10:51:00
5:51 AM,66.0,48.0,52,29.98,10.0,Calm,Calm,-,N/A,,Clear,0,2013-09-04 11:51:00
6:51 AM,63.0,46.0,54,29.99,10.0,WSW,4.6,-,N/A,,Clear,240,2013-09-04 12:51:00
7:51 AM,70.0,48.0,46,30.01,10.0,NNE,3.5,-,N/A,,Clear,20,2013-09-04 13:51:00
8:51 AM,75.9,51.1,42,30.02,10.0,Calm,Calm,-,N/A,,Clear,0,2013-09-04 14:51:00
9:51 AM,81.0,52.0,36,30.03,10.0,Calm,Calm,-,N/A,,Clear,0,2013-09-04 15:51:00
10:51 AM,84.9,52.0,32,30.03,10.0,Calm,Calm,-,N/A,,Clear,0,2013-09-04 16:51:00
11:51 AM,89.1,45.0,22,30.01,10.0,South,10.4,17.3,N/A,,Clear,180,2013-09-04 17:51:00
12:51 PM,91.0,43.0,19,29.99,10.0,South,11.5,25.3,N/A,,Clear,170,2013-09-04 18:51:00
1:51 PM,93.0,42.1,17,29.96,10.0,SSW,10.4,-,N/A,,Clear,200,2013-09-04 19:51:00
2:51 PM,93.9,41.0,16,29.94,10.0,SSE,9.2,19.6,N/A,,Clear,150,2013-09-04 20:51:00
3:51 PM,93.9,42.1,17,29.92,10.0,South,12.7,-,N/A,,Clear,180,2013-09-04 21:51:00
4:51 PM,93.9,41.0,16,29.92,10.0,SE,6.9,17.3,N/A,,Clear,140,2013-09-04 22:51:00
5:51 PM,93.0,39.9,16,29.91,10.0,East,5.8,-,N/A,,Clear,90,2013-09-04 23:51:00
6:51 PM,91.9,41.0,17,29.92,10.0,SE,9.2,-,N/A,,Partly Cloudy,140,2013-09-05 00:51:00
7:51 PM,86.0,44.1,23,29.94,10.0,SE,6.9,-,N/A,,Mostly Cloudy,140,2013-09-05 01:51:00
8:51 PM,82.0,43.0,25,29.96,10.0,SSE,6.9,-,N/A,,Clear,150,2013-09-05 02:51:00
9:51 PM,77.0,43.0,30,29.97,10.0,SSE,4.6,-,N/A,,Clear,160,2013-09-05 03:51:00
10:51 PM,79.0,39.9,25,29.97,10.0,SSE,5.8,-,N/A,,Clear,160,2013-09-05 04:51:00
11:51 PM,75.0,41.0,29,29.98,10.0,Calm,Calm,-,N/A,,Clear,0,2013-09-05 05:51:00